Impacts METAR Board INFO
IDs:

KCLE - Cleveland/Hopkins In, OH, US

Updated at: 0333 UTC 19 Feb 2018
Potential Impact None Slight Moderate High
Time18/15Z 18/16Z 18/17Z 18/18Z 18/19Z 18/20Z 18/21Z 18/22Z 18/23Z 19/00Z 19/01Z 19/02Z 19/03Z
VIS10 10 10 10 10 10 10 10 10 10 10 10 10
CIG26 24 -- 250 250 250 250 250 250 250 250 250 250
CoverOVCOVCSCTBKNBKNBKNOVCBKNBKNBKNBKNBKNBKN
FltCatMVFRMVFRVFRVFRVFRVFRVFRVFRVFRVFRVFRVFRVFR
WX--------------------------
WDir210240220230180210180160140150140160150
WSpd5 7 7 9 9 10 11 8 5 5 8 9 11
WGst-- -- -- -- -- -- -- -- -- -- -- -- --
Raw hourly METARs
KCLE 181451Z 21005KT 10SM OVC026 01/M02 A3038 RMK AO2 SLP295 T00111022 51019
KCLE 181551Z 24007KT 10SM OVC024 02/M03 A3038 RMK AO2 SLP297 BINOVC T00221028
KCLE 181651Z 22007KT 10SM SCT027 SCT035 03/M02 A3037 RMK AO2 SLP291 T00331022
KCLE 181751Z 23009KT 10SM SCT027 BKN250 04/M02 A3035 RMK AO2 SLP284 T00441017 10044 20000 58010
KCLE 181851Z 18009KT 10SM FEW027 BKN250 05/M02 A3034 RMK AO2 SLP283 T00501022
KCLE 181951Z 21010KT 10SM SCT035 BKN250 06/M02 A3035 RMK AO2 SLP286 T00561022
KCLE 182051Z 18011KT 10SM SCT036 OVC250 06/M02 A3034 RMK AO2 SLP280 T00611017 58003
KCLE 182151Z 16008KT 10SM BKN250 06/M02 A3034 RMK AO2 SLP279 T00611017
KCLE 182251Z 14005KT 10SM SCT100 BKN250 04/M03 A3032 RMK AO2 SLP274 T00441028
KCLE 182351Z 15005KT 10SM FEW100 BKN250 03/M03 A3029 RMK AO2 SLP266 T00331028 10067 20033 58015
KCLE 190051Z 14008KT 10SM FEW150 BKN250 03/M03 A3026 RMK AO2 SLP254 T00331028
KCLE 190151Z 16009KT 10SM BKN250 03/M03 A3026 RMK AO2 SLP255 T00281028
KCLE 190251Z 15011KT 10SM BKN250 02/M03 A3023 RMK AO2 SLP243 T00221028 57022